Time;durP1;ratioP1;P1;durP2;ratioP2;P2;SDS_P1;SDS_P2;PMS_P1;PMS_P2;Temp;Humidity;BMP_temperature;BMP_pressure;BME280_temperature;BME280_humidity;BME280_pressure;Samples;Min_cycle;Max_cycle;Signal;HPM_P1;HPM_P2
2024/01/20 00:00:59;;;;;;;1.70;1.60;;;;;;;8.58;nan;98886.34;5092038;28;20203;-67
2024/01/20 00:03:26;;;;;;;1.07;1.00;;;;;;;8.53;nan;98893.34;5091879;28;20195;-67
2024/01/20 00:05:53;;;;;;;1.10;1.10;;;;;;;8.44;nan;98881.66;5110862;28;20255;-68
2024/01/20 00:08:19;;;;;;;2.40;1.73;;;;;;;8.49;nan;98876.41;5103680;28;20195;-67
2024/01/20 00:10:46;;;;;;;1.70;1.60;;;;;;;8.49;nan;98878.97;5107569;28;20199;-67
2024/01/20 00:13:13;;;;;;;1.17;1.17;;;;;;;8.50;nan;98878.09;5104977;28;20649;-67
2024/01/20 00:15:41;;;;;;;2.07;1.57;;;;;;;8.50;nan;98867.88;5112123;28;20779;-68
2024/01/20 00:18:09;;;;;;;1.00;1.00;;;;;;;8.50;nan;98870.44;5103814;28;20203;-68
2024/01/20 00:20:35;;;;;;;1.90;1.80;;;;;;;8.44;nan;98863.78;5112597;28;20195;-67
2024/01/20 00:23:02;;;;;;;1.30;1.30;;;;;;;8.42;nan;98856.16;5111633;28;20685;-68
2024/01/20 00:25:29;;;;;;;1.13;1.13;;;;;;;8.37;nan;98841.84;5091874;28;20204;-67
2024/01/20 00:27:55;;;;;;;2.47;1.93;;;;;;;8.38;nan;98844.38;5093855;28;20206;-67
2024/01/20 00:30:22;;;;;;;3.03;1.40;;;;;;;8.44;nan;98859.50;5095970;28;20198;-68
2024/01/20 00:32:50;;;;;;;1.30;0.80;;;;;;;8.40;nan;98863.03;5094751;28;20578;-67
2024/01/20 00:35:17;;;;;;;1.47;1.20;;;;;;;8.41;nan;98876.63;5098704;28;20255;-68
2024/01/20 00:37:44;;;;;;;2.47;1.53;;;;;;;8.28;nan;98863.41;5112157;28;20211;-67
2024/01/20 00:40:12;;;;;;;1.00;1.00;;;;;;;8.32;nan;98895.63;5100112;28;20209;-68
2024/01/20 00:42:39;;;;;;;2.97;1.63;;;;;;;8.32;nan;98905.00;5091681;28;20736;-68
2024/01/20 00:45:07;;;;;;;1.13;1.10;;;;;;;8.27;nan;98902.53;5090685;28;20219;-68
2024/01/20 00:47:34;;;;;;;1.57;1.50;;;;;;;8.21;nan;98887.41;5090946;28;20199;-68
2024/01/20 00:50:04;;;;;;;1.20;1.20;;;;;;;8.20;nan;98888.31;5096807;28;20195;-67
2024/01/20 00:52:30;;;;;;;1.13;1.13;;;;;;;8.20;nan;98900.22;5100537;28;20251;-67
2024/01/20 00:54:57;;;;;;;1.20;1.20;;;;;;;8.12;nan;98902.97;5091224;28;20200;-67
2024/01/20 00:57:24;;;;;;;1.07;1.07;;;;;;;8.12;nan;98905.53;5091289;28;20560;-67
2024/01/20 00:59:50;;;;;;;0.77;0.77;;;;;;;8.11;nan;98906.41;5107366;28;20254;-67
2024/01/20 01:02:18;;;;;;;1.10;1.10;;;;;;;8.11;nan;98914.06;5102064;28;20256;-68
2024/01/20 01:04:45;;;;;;;1.10;1.10;;;;;;;8.12;nan;98910.63;5097342;28;20708;-67
2024/01/20 01:07:14;;;;;;;10.57;1.17;;;;;;;8.13;nan;98914.88;5094931;28;20205;-67
2024/01/20 01:09:40;;;;;;;3.60;0.93;;;;;;;8.14;nan;98924.19;5090845;28;20260;-68
2024/01/20 01:12:07;;;;;;;1.30;1.10;;;;;;;8.14;nan;98931.84;5102530;28;20626;-68
2024/01/20 01:14:34;;;;;;;0.80;0.80;;;;;;;8.17;nan;98931.78;5101272;28;20215;-69
2024/01/20 01:17:01;;;;;;;0.87;0.87;;;;;;;8.15;nan;98938.63;5090825;28;20698;-68
2024/01/20 01:19:27;;;;;;;1.30;1.30;;;;;;;8.17;nan;98944.56;5090553;28;20302;-67
2024/01/20 01:21:54;;;;;;;0.77;0.77;;;;;;;8.15;nan;98956.50;5100588;28;20194;-67
2024/01/20 01:24:22;;;;;;;1.60;0.90;;;;;;;8.15;nan;98969.28;5103534;28;20671;-68
2024/01/20 01:26:49;;;;;;;0.90;0.90;;;;;;;8.15;nan;98983.75;5102095;28;20260;-67
2024/01/20 01:29:16;;;;;;;1.17;1.17;;;;;;;8.15;nan;98989.69;5090579;28;20225;-67
2024/01/20 01:31:44;;;;;;;1.00;1.00;;;;;;;8.03;nan;98981.53;5090825;28;20256;-68
2024/01/20 01:34:11;;;;;;;1.60;1.50;;;;;;;8.04;nan;98990.88;5090197;28;20212;-68
2024/01/20 01:36:37;;;;;;;5.83;0.80;;;;;;;8.01;nan;98991.78;5090569;28;20583;-68
2024/01/20 01:39:04;;;;;;;1.00;1.00;;;;;;;8.08;nan;98995.84;5100397;28;20248;-67
2024/01/20 01:41:32;;;;;;;2.73;1.07;;;;;;;8.13;nan;98998.28;5111039;28;20255;-68
2024/01/20 01:43:59;;;;;;;0.73;0.73;;;;;;;8.12;nan;99007.66;5096488;28;20617;-67
2024/01/20 01:46:26;;;;;;;0.80;0.80;;;;;;;8.09;nan;99012.84;5090850;28;20698;-67
2024/01/20 01:48:53;;;;;;;1.00;1.00;;;;;;;7.98;nan;99027.56;5103388;28;20198;-68
2024/01/20 01:51:20;;;;;;;1.43;1.37;;;;;;;7.95;nan;99030.22;5102543;28;20195;-68
2024/01/20 01:53:47;;;;;;;1.07;1.07;;;;;;;7.84;nan;99022.00;5108403;28;20214;-68
2024/01/20 01:56:14;;;;;;;1.80;1.70;;;;;;;7.88;nan;99036.38;5090257;28;20196;-67
2024/01/20 01:58:44;;;;;;;0.90;0.90;;;;;;;7.80;nan;99023.78;5097603;28;20196;-67
2024/01/20 02:01:11;;;;;;;0.90;0.90;;;;;;;7.78;nan;99024.72;5096050;28;20249;-68
2024/01/20 02:03:38;;;;;;;1.00;1.00;;;;;;;7.78;nan;99034.94;5105475;28;20621;-67
2024/01/20 02:06:06;;;;;;;0.87;0.87;;;;;;;7.70;nan;99031.72;5095573;28;20657;-67
2024/01/20 02:08:33;;;;;;;0.70;0.70;;;;;;;7.57;nan;99004.81;5094324;28;20760;-67
2024/01/20 02:11:01;;;;;;;0.67;0.67;;;;;;;7.70;nan;99026.59;5094411;28;20204;-67
2024/01/20 02:13:30;;;;;;;0.83;0.83;;;;;;;7.65;nan;99023.34;5110284;28;20210;-68
2024/01/20 02:16:00;;;;;;;0.80;0.80;;;;;;;7.61;nan;99037.03;5109660;28;20750;-67
2024/01/20 02:18:27;;;;;;;0.60;0.60;;;;;;;7.60;nan;99063.41;5100429;28;20666;-67
2024/01/20 02:20:54;;;;;;;0.70;0.70;;;;;;;7.60;nan;99066.81;5102470;28;20199;-67
2024/01/20 02:23:23;;;;;;;0.83;0.83;;;;;;;7.37;nan;99039.28;5096826;28;20192;-67
2024/01/20 02:25:49;;;;;;;1.33;0.70;;;;;;;7.54;nan;99061.00;5094337;28;20705;-67
2024/01/20 02:28:16;;;;;;;0.50;0.50;;;;;;;7.46;nan;99068.84;5098671;28;20276;-68
2024/01/20 02:30:44;;;;;;;0.60;0.60;;;;;;;7.42;nan;99071.50;5103619;28;20199;-67
2024/01/20 02:33:11;;;;;;;0.57;0.57;;;;;;;7.39;nan;99078.34;5096051;28;20198;-67
2024/01/20 02:35:38;;;;;;;0.97;0.97;;;;;;;7.34;nan;99084.41;5095328;28;20253;-67
2024/01/20 02:38:04;;;;;;;0.50;0.50;;;;;;;7.33;nan;99078.47;5094012;28;20195;-67
2024/01/20 02:40:32;;;;;;;0.80;0.80;;;;;;;7.31;nan;99074.28;5093789;28;20196;-67
2024/01/20 02:42:59;;;;;;;0.50;0.50;;;;;;;7.13;nan;99067.88;5094035;28;20708;-67
2024/01/20 02:45:26;;;;;;;1.70;0.87;;;;;;;7.16;nan;99080.56;5097155;28;20198;-67
2024/01/20 02:47:54;;;;;;;0.73;0.73;;;;;;;7.10;nan;99085.78;5101702;27;20227;-67
2024/01/20 02:50:21;;;;;;;0.70;0.70;;;;;;;7.05;nan;99102.03;5106519;28;20209;-68
2024/01/20 02:52:47;;;;;;;0.67;0.67;;;;;;;7.01;nan;99096.16;5103861;28;20578;-67
2024/01/20 02:55:14;;;;;;;0.77;0.77;;;;;;;7.06;nan;99114.75;5109228;28;20282;-67
2024/01/20 02:57:42;;;;;;;0.60;0.60;;;;;;;6.96;nan;99112.41;5113750;28;20206;-67
2024/01/20 03:00:10;;;;;;;0.70;0.70;;;;;;;6.95;nan;99111.56;5105439;28;20683;-67
2024/01/20 03:02:36;;;;;;;0.73;0.73;;;;;;;6.85;nan;99115.19;5096175;28;20203;-68
2024/01/20 03:05:03;;;;;;;0.70;0.70;;;;;;;6.81;nan;99118.69;5102689;28;20195;-67
2024/01/20 03:07:30;;;;;;;1.17;1.17;;;;;;;6.81;nan;99123.78;5102869;28;20204;-68
2024/01/20 03:09:57;;;;;;;0.60;0.60;;;;;;;6.77;nan;99120.44;5110208;28;20312;-67
2024/01/20 03:12:23;;;;;;;0.77;0.77;;;;;;;6.80;nan;99138.22;5112184;28;20220;-67
2024/01/20 03:14:52;;;;;;;0.90;0.90;;;;;;;6.77;nan;99142.53;5104230;28;20211;-67
2024/01/20 03:17:18;;;;;;;1.20;1.20;;;;;;;6.63;nan;99147.03;5107060;28;20218;-67
2024/01/20 03:19:45;;;;;;;0.57;0.57;;;;;;;6.67;nan;99146.09;5113264;28;20199;-67
2024/01/20 03:22:12;;;;;;;0.90;0.90;;;;;;;6.66;nan;99154.59;5113311;28;20635;-67
2024/01/20 03:24:38;;;;;;;0.80;0.80;;;;;;;6.67;nan;99146.94;5100152;28;20248;-68
2024/01/20 03:27:05;;;;;;;0.50;0.50;;;;;;;6.66;nan;99150.34;5093574;28;20264;-67
2024/01/20 03:29:32;;;;;;;0.60;0.60;;;;;;;6.69;nan;99149.44;5103773;28;20249;-67
2024/01/20 03:32:00;;;;;;;0.90;0.90;;;;;;;6.70;nan;99146.03;5102612;28;20259;-67
2024/01/20 03:34:27;;;;;;;0.80;0.80;;;;;;;6.66;nan;99140.16;5098284;28;20228;-67
2024/01/20 03:36:53;;;;;;;0.70;0.70;;;;;;;6.68;nan;99142.69;5097254;28;20206;-68
2024/01/20 03:39:19;;;;;;;0.63;0.63;;;;;;;6.57;nan;99135.25;5107870;28;20203;-67
2024/01/20 03:41:46;;;;;;;0.63;0.63;;;;;;;6.61;nan;99151.31;5098255;28;20199;-67
2024/01/20 03:44:12;;;;;;;0.90;0.90;;;;;;;6.64;nan;99156.34;5092340;28;20219;-67
2024/01/20 03:46:39;;;;;;;1.63;1.63;;;;;;;6.61;nan;99169.16;5111732;28;20251;-68
2024/01/20 03:49:07;;;;;;;0.73;0.73;;;;;;;6.60;nan;99165.75;5094162;28;20623;-67
2024/01/20 03:51:34;;;;;;;0.80;0.80;;;;;;;6.65;nan;99170.78;5092518;28;20206;-68
2024/01/20 03:54:02;;;;;;;0.50;0.50;;;;;;;6.58;nan;99171.75;5099901;28;20215;-67
2024/01/20 03:56:28;;;;;;;0.60;0.60;;;;;;;6.59;nan;99186.97;5104991;28;20193;-67
2024/01/20 03:58:55;;;;;;;0.53;0.53;;;;;;;6.64;nan;99192.00;5104229;28;20202;-69
2024/01/20 04:01:22;;;;;;;0.83;0.83;;;;;;;6.65;nan;99193.69;5112761;28;20275;-67
2024/01/20 04:03:48;;;;;;;0.60;0.60;;;;;;;6.61;nan;99199.72;5107233;28;20199;-68
2024/01/20 04:06:17;;;;;;;0.77;0.77;;;;;;;6.60;nan;99195.47;5092410;28;20196;-68
2024/01/20 04:08:43;;;;;;;0.80;0.80;;;;;;;6.61;nan;99197.16;5094487;28;20203;-68
2024/01/20 04:11:10;;;;;;;1.40;0.77;;;;;;;6.61;nan;99202.25;5094864;28;20191;-67
2024/01/20 04:13:37;;;;;;;0.60;0.60;;;;;;;6.54;nan;99215.94;5094543;28;20662;-68
2024/01/20 04:16:04;;;;;;;0.80;0.80;;;;;;;6.55;nan;99217.66;5094131;28;20219;-67
2024/01/20 04:18:31;;;;;;;0.73;0.73;;;;;;;6.39;nan;99198.41;5104551;28;20319;-68
2024/01/20 04:20:57;;;;;;;0.60;0.60;;;;;;;6.37;nan;99207.75;5109378;28;20528;-67
2024/01/20 04:23:26;;;;;;;1.00;1.00;;;;;;;6.41;nan;99222.09;5105541;28;20282;-67
2024/01/20 04:25:53;;;;;;;0.60;0.60;;;;;;;6.28;nan;99219.78;5101283;28;20556;-67
2024/01/20 04:28:20;;;;;;;0.60;0.60;;;;;;;6.24;nan;99232.56;5104735;28;20285;-68
2024/01/20 04:30:46;;;;;;;0.60;0.60;;;;;;;6.26;nan;99246.97;5099437;28;20640;-68
2024/01/20 04:33:13;;;;;;;0.77;0.77;;;;;;;6.20;nan;99257.22;5090402;28;20249;-68
2024/01/20 04:35:40;;;;;;;0.60;0.60;;;;;;;6.22;nan;99270.78;5091592;28;20269;-68
2024/01/20 04:38:06;;;;;;;0.50;0.50;;;;;;;6.14;nan;99279.41;5098499;28;20195;-68
2024/01/20 04:40:34;;;;;;;0.83;0.83;;;;;;;6.08;nan;99287.94;5091580;28;20256;-67
2024/01/20 04:43:01;;;;;;;0.70;0.70;;;;;;;5.96;nan;99272.84;5095436;28;20261;-68
2024/01/20 04:45:28;;;;;;;0.90;0.90;;;;;;;5.97;nan;99279.63;5100407;28;20198;-68
2024/01/20 04:47:54;;;;;;;0.60;0.60;;;;;;;6.01;nan;99291.41;5095010;28;20686;-68
2024/01/20 04:50:21;;;;;;;0.80;0.80;;;;;;;6.01;nan;99293.97;5096401;28;20202;-67
2024/01/20 04:52:48;;;;;;;0.70;0.70;;;;;;;5.98;nan;99301.63;5105882;28;20256;-67
2024/01/20 04:55:15;;;;;;;0.53;0.53;;;;;;;5.95;nan;99301.69;5099847;28;20218;-67
2024/01/20 04:57:43;;;;;;;0.83;0.83;;;;;;;5.89;nan;99311.94;5104018;28;20192;-68
2024/01/20 05:00:10;;;;;;;1.03;1.03;;;;;;;5.88;nan;99329.78;5100807;28;20255;-67
2024/01/20 05:02:37;;;;;;;0.67;0.67;;;;;;;5.74;nan;99314.66;5111463;27;20205;-68
2024/01/20 05:05:04;;;;;;;0.80;0.80;;;;;;;5.70;nan;99335.88;5095623;28;20283;-68
2024/01/20 05:07:31;;;;;;;0.50;0.50;;;;;;;5.67;nan;99341.84;5100029;28;20217;-68
2024/01/20 05:09:58;;;;;;;0.60;0.60;;;;;;;5.59;nan;99336.00;5110577;28;20195;-67
2024/01/20 05:12:24;;;;;;;0.50;0.50;;;;;;;5.65;nan;99347.81;5099652;28;20570;-67
2024/01/20 05:14:52;;;;;;;0.70;0.70;;;;;;;5.62;nan;99371.56;5093231;28;20297;-68
2024/01/20 05:17:19;;;;;;;1.00;1.00;;;;;;;5.60;nan;99380.06;5101300;28;20283;-67
2024/01/20 05:19:46;;;;;;;0.50;0.50;;;;;;;5.60;nan;99380.06;5098965;28;20244;-68
2024/01/20 05:22:13;;;;;;;0.97;0.97;;;;;;;5.56;nan;99388.59;5090841;28;20699;-67
2024/01/20 05:24:39;;;;;;;0.70;0.70;;;;;;;5.47;nan;99379.38;5095409;28;20617;-68
2024/01/20 05:27:06;;;;;;;0.70;0.70;;;;;;;5.47;nan;99393.75;5099686;28;20199;-67
2024/01/20 05:29:33;;;;;;;0.50;0.50;;;;;;;5.43;nan;99387.88;5092541;28;20199;-67
2024/01/20 05:32:01;;;;;;;0.50;0.50;;;;;;;5.48;nan;99410.72;5104871;28;20252;-67
2024/01/20 05:34:28;;;;;;;0.60;0.60;;;;;;;5.48;nan;99413.25;5102018;28;20219;-68
2024/01/20 05:36:54;;;;;;;0.50;0.50;;;;;;;5.39;nan;99408.25;5097958;28;20632;-67
2024/01/20 05:39:21;;;;;;;0.60;0.60;;;;;;;5.42;nan;99415.88;5099805;28;21285;-67
2024/01/20 05:41:48;;;;;;;0.50;0.50;;;;;;;5.47;nan;99419.19;5101308;28;20207;-68
2024/01/20 05:44:14;;;;;;;0.50;0.50;;;;;;;5.45;nan;99410.75;5093477;28;20736;-67
2024/01/20 05:46:41;;;;;;;0.50;0.50;;;;;;;5.05;nan;99345.03;5091481;28;20199;-67
2024/01/20 05:49:09;;;;;;;0.70;0.70;;;;;;;5.43;nan;99420.09;5103752;28;20655;-67
2024/01/20 05:51:36;;;;;;;0.70;0.70;;;;;;;5.42;nan;99416.72;5093885;28;20206;-67
2024/01/20 05:54:03;;;;;;;0.50;0.50;;;;;;;5.44;nan;99424.31;5109429;28;20198;-67
2024/01/20 05:56:29;;;;;;;0.50;0.50;;;;;;;5.35;nan;99409.13;5095660;28;20268;-67
2024/01/20 05:58:56;;;;;;;0.60;0.60;;;;;;;5.45;nan;99431.09;5099803;28;20669;-67
2024/01/20 06:01:23;;;;;;;0.60;0.60;;;;;;;5.43;nan;99435.34;5103964;28;20199;-67
2024/01/20 06:03:49;;;;;;;12.83;1.00;;;;;;;5.42;nan;99442.13;5106169;28;20624;-67
2024/01/20 06:06:18;;;;;;;0.50;0.50;;;;;;;5.42;nan;99447.22;5091443;28;20199;-67
2024/01/20 06:08:44;;;;;;;0.50;0.50;;;;;;;5.43;nan;99453.97;5100436;28;20627;-66
2024/01/20 06:11:11;;;;;;;0.50;0.50;;;;;;;5.49;nan;99463.25;5093325;28;20195;-66
2024/01/20 06:13:38;;;;;;;0.50;0.50;;;;;;;5.43;nan;99453.16;5090445;28;20208;-67
2024/01/20 06:16:06;;;;;;;0.70;0.70;;;;;;;5.48;nan;99471.72;5103795;28;20218;-67
2024/01/20 06:18:33;;;;;;;0.60;0.60;;;;;;;5.45;nan;99476.84;5097636;28;20279;-67
2024/01/20 06:21:00;;;;;;;0.50;0.50;;;;;;;5.36;nan;99467.59;5095590;28;20198;-67
2024/01/20 06:23:28;;;;;;;0.60;0.60;;;;;;;5.45;nan;99487.00;5090553;28;20228;-67
2024/01/20 06:25:55;;;;;;;0.77;0.77;;;;;;;5.42;nan;99502.28;5108889;28;20199;-68
2024/01/20 06:28:23;;;;;;;0.60;0.60;;;;;;;5.46;nan;99514.13;5098660;28;20671;-67
2024/01/20 06:30:50;;;;;;;0.70;0.70;;;;;;;5.41;nan;99513.31;5100253;28;20690;-67
2024/01/20 06:33:17;;;;;;;0.50;0.50;;;;;;;5.35;nan;99521.84;5103000;28;20229;-67
2024/01/20 06:35:44;;;;;;;0.50;0.50;;;;;;;5.20;nan;99494.00;5110605;28;20215;-67
2024/01/20 06:38:10;;;;;;;0.50;0.50;;;;;;;5.35;nan;99531.16;5090581;28;20245;-68
2024/01/20 06:40:38;;;;;;;0.60;0.60;;;;;;;5.29;nan;99527.81;5090021;28;20195;-67
2024/01/20 06:43:06;;;;;;;0.50;0.50;;;;;;;5.29;nan;99537.97;5107514;28;20194;-67
2024/01/20 06:45:34;;;;;;;0.50;0.50;;;;;;;5.23;nan;99538.00;5102177;28;20693;-66
2024/01/20 06:48:02;;;;;;;0.60;0.60;;;;;;;5.21;nan;99551.56;5106020;28;20227;-67
2024/01/20 06:50:29;;;;;;;0.50;0.50;;;;;;;5.08;nan;99548.25;5101167;28;20195;-67
2024/01/20 06:52:55;;;;;;;0.60;0.60;;;;;;;5.04;nan;99566.91;5103282;28;20632;-67
2024/01/20 06:55:22;;;;;;;0.57;0.57;;;;;;;4.92;nan;99566.97;5096783;28;20260;-67
2024/01/20 06:57:50;;;;;;;0.60;0.60;;;;;;;4.74;nan;99567.06;5093844;28;20264;-67
2024/01/20 07:00:17;;;;;;;0.60;0.60;;;;;;;4.75;nan;99583.97;5091999;28;20229;-67
2024/01/20 07:02:44;;;;;;;0.70;0.70;;;;;;;4.71;nan;99583.16;5098732;28;20198;-67
2024/01/20 07:05:11;;;;;;;0.60;0.60;;;;;;;4.59;nan;99577.25;5092635;28;20605;-67
2024/01/20 07:07:38;;;;;;;0.50;0.50;;;;;;;4.55;nan;99601.84;5092537;28;20736;-66
2024/01/20 07:10:08;;;;;;;0.53;0.53;;;;;;;4.43;nan;99601.00;5092423;28;20261;-67
2024/01/20 07:12:35;;;;;;;0.70;0.70;;;;;;;4.36;nan;99606.97;5095335;28;20211;-67
2024/01/20 07:15:03;;;;;;;0.60;0.60;;;;;;;4.19;nan;99592.63;5092449;28;20227;-66
2024/01/20 07:17:30;;;;;;;0.60;0.60;;;;;;;4.13;nan;99600.25;5092759;28;20231;-68
2024/01/20 07:19:57;;;;;;;1.00;1.00;;;;;;;4.06;nan;99606.16;5093505;28;20579;-67
2024/01/20 07:22:23;;;;;;;0.60;0.60;;;;;;;4.00;nan;99606.16;5096246;28;20199;-67
2024/01/20 07:24:50;;;;;;;0.60;0.60;;;;;;;3.91;nan;99616.28;5092836;28;20216;-68
2024/01/20 07:27:17;;;;;;;0.70;0.70;;;;;;;3.89;nan;99620.53;5090472;28;20344;-67
2024/01/20 07:29:44;;;;;;;0.60;0.60;;;;;;;3.83;nan;99618.00;5109528;28;20195;-68
2024/01/20 07:32:12;;;;;;;0.60;0.60;;;;;;;3.77;nan;99625.59;5095317;28;20199;-67
2024/01/20 07:34:39;;;;;;;0.60;0.60;;;;;;;3.72;nan;99629.81;5084935;28;20330;-67
2024/01/20 07:37:06;;;;;;;0.70;0.70;;;;;;;3.57;nan;99629.78;5087546;28;20203;-67
2024/01/20 07:39:32;;;;;;;0.70;0.70;;;;;;;3.59;nan;99633.16;5088569;28;20207;-67
2024/01/20 07:41:59;;;;;;;0.63;0.63;;;;;;;3.51;nan;99634.84;5086970;28;20211;-67
2024/01/20 07:44:26;;;;;;;0.67;0.67;;;;;;;3.35;nan;99648.34;5084556;28;20211;-67
2024/01/20 07:46:53;;;;;;;0.50;0.50;;;;;;;3.25;nan;99654.22;5090606;28;20257;-67
2024/01/20 07:49:21;;;;;;;0.50;0.50;;;;;;;3.28;nan;99669.41;5094008;28;20195;-67
2024/01/20 07:51:47;;;;;;;0.60;0.60;;;;;;;3.17;nan;99667.69;5100854;28;20645;-67
2024/01/20 07:54:16;;;;;;;0.60;0.60;;;;;;;3.00;nan;99676.94;5093301;28;20203;-67
2024/01/20 07:56:42;;;;;;;0.60;0.60;;;;;;;2.86;nan;99672.63;5090100;28;20223;-67
2024/01/20 07:59:09;;;;;;;0.70;0.70;;;;;;;2.78;nan;99670.03;5098996;28;20260;-67
2024/01/20 08:01:36;;;;;;;0.53;0.53;;;;;;;2.82;nan;99692.00;5091340;28;20257;-67
2024/01/20 08:04:03;;;;;;;0.70;0.70;;;;;;;2.71;nan;99686.06;5093419;28;20211;-68
2024/01/20 08:06:31;;;;;;;0.67;0.67;;;;;;;2.68;nan;99692.78;5088811;28;20726;-67
2024/01/20 08:08:58;;;;;;;0.50;0.50;;;;;;;2.72;nan;99697.84;5089768;28;20200;-68
2024/01/20 08:11:24;;;;;;;0.53;0.53;;;;;;;2.59;nan;99693.56;5097979;28;20206;-67
2024/01/20 08:13:51;;;;;;;0.60;0.60;;;;;;;2.63;nan;99715.53;5095483;28;20207;-67
2024/01/20 08:16:18;;;;;;;0.60;0.60;;;;;;;2.55;nan;99717.16;5095038;28;20239;-67
2024/01/20 08:18:45;;;;;;;0.60;0.60;;;;;;;2.52;nan;99722.22;5095553;28;20194;-67
2024/01/20 08:21:11;;;;;;;0.90;0.90;;;;;;;2.50;nan;99726.41;5091419;28;20215;-67
2024/01/20 08:23:39;;;;;;;0.70;0.70;;;;;;;2.50;nan;99733.97;5103013;28;20204;-67
2024/01/20 08:26:06;;;;;;;0.70;0.70;;;;;;;2.48;nan;99738.19;5099482;28;20195;-67
2024/01/20 08:28:33;;;;;;;0.73;0.73;;;;;;;2.44;nan;99736.47;5099701;28;20203;-67
2024/01/20 08:31:01;;;;;;;0.60;0.60;;;;;;;2.44;nan;99749.97;5089927;28;20203;-67
2024/01/20 08:33:27;;;;;;;0.60;0.60;;;;;;;2.43;nan;99747.41;5090142;28;20633;-67
2024/01/20 08:35:54;;;;;;;1.90;1.43;;;;;;;2.37;nan;99757.50;5101452;28;20214;-64
2024/01/20 08:38:21;;;;;;;0.50;0.50;;;;;;;2.29;nan;99767.56;5089487;27;20645;-67
2024/01/20 08:40:49;;;;;;;0.70;0.70;;;;;;;2.20;nan;99748.94;5091108;28;20660;-67
2024/01/20 08:43:16;;;;;;;0.70;0.70;;;;;;;2.20;nan;99754.00;5095794;28;20195;-67
2024/01/20 08:45:43;;;;;;;0.50;0.50;;;;;;;2.25;nan;99783.53;5089379;28;20285;-67
2024/01/20 08:48:10;;;;;;;0.70;0.70;;;;;;;2.17;nan;99791.88;5088963;28;20610;-67
2024/01/20 08:50:37;;;;;;;0.83;0.83;;;;;;;2.18;nan;99801.16;5090656;28;20253;-68
2024/01/20 08:53:04;;;;;;;0.50;0.50;;;;;;;2.17;nan;99802.00;5089514;28;20598;-67
2024/01/20 08:55:30;;;;;;;0.90;0.90;;;;;;;2.13;nan;99802.81;5098878;28;20271;-68
2024/01/20 08:58:01;;;;;;;0.60;0.60;;;;;;;2.02;nan;99807.75;5090702;28;20206;-67
2024/01/20 09:00:28;;;;;;;0.70;0.70;;;;;;;2.04;nan;99804.41;5089902;28;20219;-67
2024/01/20 09:02:54;;;;;;;0.60;0.60;;;;;;;1.97;nan;99796.75;5089345;28;20629;-66
2024/01/20 09:05:21;;;;;;;1.10;1.10;;;;;;;2.05;nan;99816.22;5087793;28;20207;-67
2024/01/20 09:07:48;;;;;;;0.60;0.60;;;;;;;1.98;nan;99816.97;5087633;28;20249;-67
2024/01/20 09:10:15;;;;;;;0.60;0.60;;;;;;;1.91;nan;99802.56;5089904;28;20643;-67
2024/01/20 09:12:41;;;;;;;0.80;0.80;;;;;;;2.00;nan;99827.94;5090471;28;20679;-68
2024/01/20 09:15:10;;;;;;;0.50;0.50;;;;;;;1.91;nan;99832.06;5087757;28;20253;-67
2024/01/20 09:17:37;;;;;;;0.60;0.60;;;;;;;2.03;nan;99848.25;5088888;28;20230;-67
2024/01/20 09:20:06;;;;;;;1.27;1.27;;;;;;;1.93;nan;99843.06;5094373;28;20203;-67
2024/01/20 09:22:32;;;;;;;0.87;0.87;;;;;;;1.99;nan;99841.44;5088273;28;20202;-67
2024/01/20 09:25:01;;;;;;;0.60;0.60;;;;;;;1.98;nan;99842.25;5090785;28;20276;-67
2024/01/20 09:27:28;;;;;;;0.60;0.60;;;;;;;1.95;nan;99839.69;5087721;28;20203;-67
2024/01/20 09:29:56;;;;;;;0.67;0.67;;;;;;;1.78;nan;99818.44;5089031;28;20203;-67
2024/01/20 09:32:24;;;;;;;0.70;0.70;;;;;;;1.97;nan;99847.31;5092074;28;20632;-67
2024/01/20 09:34:51;;;;;;;0.70;0.70;;;;;;;1.95;nan;99854.88;5093023;28;20211;-67
2024/01/20 09:37:17;;;;;;;0.90;0.90;;;;;;;1.95;nan;99859.94;5087286;28;20755;-67
2024/01/20 09:39:44;;;;;;;0.60;0.60;;;;;;;1.80;nan;99844.59;5086719;28;20207;-67
2024/01/20 09:42:11;;;;;;;0.60;0.60;;;;;;;1.95;nan;99859.94;5089746;28;20658;-67
2024/01/20 09:44:38;;;;;;;0.60;0.60;;;;;;;1.97;nan;99865.03;5089527;28;20239;-67
2024/01/20 09:47:09;;;;;;;0.63;0.63;;;;;;;1.98;nan;99865.03;5090306;28;20203;-67
2024/01/20 10:32:33;;;;;;;0.90;0.90;;;;;;;2.10;nan;99898.03;5081287;22;20297;-69
2024/01/20 10:35:00;;;;;;;0.60;0.60;;;;;;;2.09;nan;99903.09;5071887;28;20208;-68
2024/01/20 10:37:31;;;;;;;1.63;1.33;;;;;;;2.04;nan;99889.50;5066352;28;20216;-68
2024/01/20 10:40:02;;;;;;;0.73;0.73;;;;;;;2.13;nan;99905.63;5069740;28;20204;-67
2024/01/20 10:42:31;;;;;;;0.70;0.70;;;;;;;2.14;nan;99906.50;5067819;28;20200;-68
2024/01/20 10:45:03;;;;;;;0.60;0.60;;;;;;;2.19;nan;99909.09;5070593;28;20643;-68
2024/01/20 10:47:36;;;;;;;0.70;0.70;;;;;;;2.20;nan;99910.81;5068858;28;20204;-68
2024/01/20 10:50:05;;;;;;;0.67;0.67;;;;;;;2.26;nan;99915.94;5070318;28;20228;-68
2024/01/20 10:52:32;;;;;;;0.70;0.70;;;;;;;2.29;nan;99918.47;5070084;28;20273;-68
2024/01/20 10:55:00;;;;;;;1.00;1.00;;;;;;;2.32;nan;99921.91;5068892;28;20208;-67
2024/01/20 10:57:27;;;;;;;1.23;1.23;;;;;;;2.17;nan;99898.94;5070949;28;20235;-68
2024/01/20 10:59:55;;;;;;;0.83;0.83;;;;;;;2.33;nan;99922.72;5071432;28;20208;-68
2024/01/20 11:02:23;;;;;;;0.73;0.73;;;;;;;2.37;nan;99921.94;5071386;28;20199;-67
2024/01/20 11:04:52;;;;;;;1.20;1.20;;;;;;;2.22;nan;99904.06;5060194;28;20208;-68
2024/01/20 11:07:22;;;;;;;3.00;1.97;;;;;;;2.13;nan;99878.69;5066283;28;20623;-68
2024/01/20 11:09:56;;;;;;;0.60;0.60;;;;;;;2.36;nan;99913.50;5066851;28;20235;-68
2024/01/20 11:12:24;;;;;;;0.60;0.60;;;;;;;2.41;nan;99921.13;5067891;28;20645;-68
2024/01/20 11:14:51;;;;;;;0.70;0.70;;;;;;;2.42;nan;99922.84;5069353;28;20687;-67
2024/01/20 11:17:18;;;;;;;0.60;0.60;;;;;;;2.45;nan;99922.88;5065999;28;20226;-68
2024/01/20 11:19:45;;;;;;;1.23;1.23;;;;;;;2.47;nan;99929.66;5069690;28;20253;-68
2024/01/20 11:22:33;;;;;;;1.10;1.10;;;;;;;2.44;nan;99922.03;5067473;28;20203;-68
2024/01/20 11:25:05;;;;;;;1.10;1.10;;;;;;;2.55;nan;99949.97;5067153;28;20258;-68
2024/01/20 11:27:45;;;;;;;0.60;0.60;;;;;;;2.56;nan;99956.72;5062542;28;20240;-67
2024/01/20 11:30:12;;;;;;;0.90;0.90;;;;;;;2.52;nan;99950.78;5064731;28;20227;-67
2024/01/20 11:32:39;;;;;;;4.33;2.33;;;;;;;2.50;nan;99954.13;5060209;28;20285;-68
2024/01/20 11:35:06;;;;;;;1.30;1.30;;;;;;;2.56;nan;99956.72;5068118;28;20261;-68
2024/01/20 11:37:35;;;;;;;0.60;0.60;;;;;;;2.57;nan;99958.44;5069827;28;20705;-67
2024/01/20 11:40:07;;;;;;;0.93;0.93;;;;;;;2.58;nan;99944.94;5065870;28;20683;-68
2024/01/20 11:42:34;;;;;;;0.80;0.80;;;;;;;2.65;nan;99956.81;5067168;28;20196;-68
2024/01/20 11:45:01;;;;;;;0.60;0.60;;;;;;;2.49;nan;99934.72;5069986;28;20203;-68
2024/01/20 11:47:29;;;;;;;0.67;0.67;;;;;;;2.67;nan;99947.56;5067623;28;20197;-68
2024/01/20 11:49:56;;;;;;;2.20;2.20;;;;;;;2.71;nan;99951.84;5068532;28;20196;-68
2024/01/20 11:52:23;;;;;;;2.40;2.30;;;;;;;2.73;nan;99960.28;5069297;28;20212;-68
2024/01/20 11:54:51;;;;;;;2.53;2.47;;;;;;;2.76;nan;99957.78;5069717;28;20257;-68
2024/01/20 11:57:22;;;;;;;2.10;2.10;;;;;;;2.76;nan;99955.25;5068935;28;20212;-68
2024/01/20 11:59:48;;;;;;;0.83;0.83;;;;;;;2.82;nan;99952.78;5065941;28;20208;-68
2024/01/20 12:02:16;;;;;;;4.10;1.27;;;;;;;2.85;nan;99960.41;5069610;28;20323;-68
2024/01/20 12:04:43;;;;;;;1.23;1.23;;;;;;;2.93;nan;99960.47;5069096;28;20201;-68
2024/01/20 12:07:10;;;;;;;1.17;1.17;;;;;;;2.96;nan;99963.91;5069180;28;20199;-68
2024/01/20 12:09:37;;;;;;;2.17;2.17;;;;;;;2.97;nan;99960.50;5068656;28;20196;-68
2024/01/20 12:12:06;;;;;;;1.60;1.60;;;;;;;3.06;nan;99975.81;5068053;28;20211;-68
2024/01/20 12:14:34;;;;;;;2.33;2.30;;;;;;;3.00;nan;99983.34;5070033;28;20269;-68
2024/01/20 12:17:00;;;;;;;1.33;1.33;;;;;;;2.84;nan;99978.97;5071320;28;20220;-68
2024/01/20 12:19:27;;;;;;;0.97;0.97;;;;;;;2.99;nan;99996.00;5066145;28;20613;-68
2024/01/20 12:21:55;;;;;;;2.17;2.17;;;;;;;3.10;nan;99997.78;5069616;28;20923;-68
2024/01/20 12:24:24;;;;;;;0.70;0.70;;;;;;;3.17;nan;99999.53;5068955;28;20663;-68
2024/01/20 12:26:50;;;;;;;0.90;0.90;;;;;;;3.21;nan;99995.34;5066285;28;20262;-67
2024/01/20 12:29:18;;;;;;;0.87;0.87;;;;;;;3.26;nan;100003.00;5066986;28;20267;-67
2024/01/20 12:31:45;;;;;;;1.50;1.50;;;;;;;3.34;nan;100006.44;5068586;28;20607;-68
2024/01/20 12:34:12;;;;;;;1.33;1.33;;;;;;;3.38;nan;100014.09;5067642;28;20296;-68
2024/01/20 12:36:39;;;;;;;1.03;1.03;;;;;;;3.43;nan;100014.09;5066545;28;20220;-68
2024/01/20 12:39:06;;;;;;;0.97;0.97;;;;;;;3.42;nan;100017.50;5066197;28;20249;-69
2024/01/20 12:41:33;;;;;;;0.77;0.77;;;;;;;3.23;nan;100033.38;5067432;28;20736;-69